Time;durP1;ratioP1;P1;durP2;ratioP2;P2;SDS_P1;SDS_P2;PMS_P1;PMS_P2;Temp;Humidity;BMP_temperature;BMP_pressure;BME280_temperature;BME280_humidity;BME280_pressure;Samples;Min_cycle;Max_cycle;Signal;HPM_P1;HPM_P2
2022/02/11 00:00:20;;;;;;;0.10;0.10;;;;;;;7.99;54.38;102274.34;5030859;28;20065;-79
2022/02/11 00:07:58;;;;;;;0.10;0.10;;;;;;;8.17;53.96;102271.09;5079443;27;20425;-80
2022/02/11 00:10:26;;;;;;;0.10;0.10;;;;;;;8.16;54.28;102277.22;5067404;28;20033;-80
2022/02/11 00:12:54;;;;;;;0.40;0.40;;;;;;;8.29;54.06;102268.59;5051436;28;20069;-81
2022/02/11 00:15:37;;;;;;;0.10;0.10;;;;;;;8.20;54.66;102284.31;5053823;28;20032;-80
2022/02/11 00:18:04;;;;;;;0.15;0.15;;;;;;;8.20;54.18;102273.75;5063463;28;20406;-80
2022/02/11 00:20:30;;;;;;;0.10;0.10;;;;;;;8.19;54.05;102288.72;5064684;28;20033;-81
2022/02/11 00:22:57;;;;;;;0.05;0.05;;;;;;;8.25;54.43;102282.66;5064801;28;20036;-81
2022/02/11 00:25:23;;;;;;;0.10;0.10;;;;;;;8.43;54.09;102290.75;5061570;28;20140;-81
2022/02/11 00:31:01;;;;;;;2.35;2.00;;;;;;;8.60;53.89;102278.66;5084003;28;20161;-81
2022/02/11 00:33:26;;;;;;;0.10;0.10;;;;;;;8.46;54.32;102278.47;5060284;28;20048;-81
2022/02/11 00:35:57;;;;;;;0.10;0.10;;;;;;;8.63;54.30;102279.59;5038357;28;20034;-81
2022/02/11 00:38:42;;;;;;;0.20;0.20;;;;;;;8.46;54.48;102282.06;5045175;28;20033;-81
2022/02/11 00:47:17;;;;;;;0.10;0.10;;;;;;;8.67;54.57;102269.94;5042391;28;20115;-82
2022/02/11 01:03:24;;;;;;;0.10;0.10;;;;;;;8.50;55.16;102245.97;5044886;28;20025;-81
2022/02/11 01:05:50;;;;;;;0.15;0.15;;;;;;;8.46;55.86;102237.16;5042652;28;20071;-81
2022/02/11 01:08:16;;;;;;;0.10;0.10;;;;;;;8.63;55.17;102233.78;5041332;28;20032;-81
2022/02/11 01:10:44;;;;;;;0.10;0.10;;;;;;;8.56;55.71;102243.41;5042670;28;20552;-82
2022/02/11 01:13:11;;;;;;;0.75;0.75;;;;;;;8.48;56.08;102237.16;5045157;28;20116;-81
2022/02/11 01:15:41;;;;;;;0.15;0.15;;;;;;;8.58;55.61;102245.22;5044204;28;20037;-81
2022/02/11 01:18:10;;;;;;;0.03;0.03;;;;;;;8.60;55.68;102242.56;5042470;28;20053;-81
2022/02/11 01:23:45;;;;;;;0.77;0.77;;;;;;;8.70;55.39;102243.56;5063781;28;20918;-81
2022/02/11 01:30:08;;;;;;;0.10;0.10;;;;;;;8.72;55.95;102255.91;5065950;28;20041;-82
2022/02/11 01:32:17;;;;;;;0.10;0.10;;;;;;;8.54;57.64;102259.25;5052370;28;20048;-81
2022/02/11 01:34:50;;;;;;;0.10;0.10;;;;;;;8.39;58.96;102281.03;5052021;28;20407;-81
2022/02/11 01:46:09;;;;;;;0.10;0.10;;;;;;;7.76;63.11;102275.81;5071124;27;20406;-80
2022/02/11 01:51:35;;;;;;;0.22;0.22;;;;;;;7.55;65.41;102286.94;5055969;27;20131;-79
2022/02/11 01:54:07;;;;;;;0.10;0.10;;;;;;;7.55;65.00;102299.22;5043372;27;20041;-79
2022/02/11 01:59:54;;;;;;;0.10;0.10;;;;;;;7.47;65.90;102295.59;5076831;28;20435;-80
2022/02/11 02:02:33;;;;;;;1.80;1.70;;;;;;;7.57;65.35;102285.19;5068811;28;20041;-81
2022/02/11 02:10:53;;;;;;;0.10;0.10;;;;;;;7.47;65.02;102306.13;5054678;28;20080;-80
2022/02/11 02:21:51;;;;;;;0.10;0.10;;;;;;;7.72;63.03;102297.72;5106175;28;20036;-80
2022/02/11 02:27:19;;;;;;;0.10;0.10;;;;;;;7.95;62.65;102305.13;5083695;28;20117;-81
2022/02/11 02:31:23;;;;;;;0.10;0.10;;;;;;;7.99;62.87;102296.38;5088201;28;20131;-81
2022/02/11 02:35:47;;;;;;;0.10;0.10;;;;;;;7.89;62.12;102302.38;5071283;27;20419;-81
2022/02/11 02:43:29;;;;;;;0.10;0.10;;;;;;;7.82;61.82;102327.78;4936198;27;4167682;-81
2022/02/11 02:50:11;;;;;;;0.10;0.10;;;;;;;8.03;61.67;102298.19;5077103;28;20072;-81
2022/02/11 02:57:35;;;;;;;0.10;0.10;;;;;;;8.15;60.96;102307.13;5055575;28;20045;-82
2022/02/11 03:17:35;;;;;;;9.43;1.55;;;;;;;8.08;58.93;102327.28;5051603;28;20085;-82
2022/02/11 03:53:52;;;;;;;0.10;0.10;;;;;;;8.07;60.30;102388.88;5047524;28;20041;-80
2022/02/11 04:21:20;;;;;;;0.10;0.10;;;;;;;8.15;58.68;102425.94;5036608;28;20088;-82
2022/02/11 04:24:49;;;;;;;0.10;0.10;;;;;;;8.03;58.24;102442.47;5036815;28;20036;-81
2022/02/11 04:28:06;;;;;;;0.10;0.10;;;;;;;7.96;58.46;102454.66;5038149;28;20131;-80
2022/02/11 04:56:59;;;;;;;0.10;0.10;;;;;;;7.89;57.32;102517.03;5025068;28;20053;-81
2022/02/11 04:59:40;;;;;;;0.85;0.85;;;;;;;7.90;57.45;102517.91;5026529;28;20084;-81
2022/02/11 05:02:07;;;;;;;0.10;0.10;;;;;;;7.86;57.98;102521.34;5025256;28;20037;-81
2022/02/11 05:04:34;;;;;;;0.10;0.10;;;;;;;7.94;57.95;102532.97;5026109;28;20455;-81
2022/02/11 05:07:03;;;;;;;0.10;0.10;;;;;;;8.00;57.82;102530.44;5024375;28;20115;-81
2022/02/11 05:09:30;;;;;;;0.10;0.10;;;;;;;7.88;58.32;102553.97;5017230;28;20052;-80
2022/02/11 05:11:56;;;;;;;0.90;0.43;;;;;;;7.91;58.76;102568.09;5011679;28;20026;-81
2022/02/11 05:14:22;;;;;;;0.10;0.10;;;;;;;7.98;58.52;102555.91;5013785;28;20038;-80
2022/02/11 05:16:48;;;;;;;0.10;0.10;;;;;;;8.06;58.51;102541.09;5020785;28;20752;-81
2022/02/11 05:19:14;;;;;;;0.10;0.10;;;;;;;8.06;58.48;102540.19;5014069;28;20057;-84
2022/02/11 05:21:40;;;;;;;0.10;0.10;;;;;;;8.08;58.75;102534.06;5012553;28;20037;-80
2022/02/11 05:24:07;;;;;;;0.20;0.20;;;;;;;8.22;58.48;102546.63;4996050;28;20030;-81
2022/02/11 05:26:33;;;;;;;0.05;0.05;;;;;;;8.32;59.20;102552.97;5013529;28;20033;-80
2022/02/11 05:28:59;;;;;;;0.10;0.10;;;;;;;8.27;58.78;102550.25;5015709;28;20056;-80
2022/02/11 05:31:25;;;;;;;0.10;0.10;;;;;;;8.14;59.39;102564.09;5022456;28;20041;-81
2022/02/11 05:33:51;;;;;;;0.10;0.10;;;;;;;8.22;58.56;102565.13;5029983;28;20036;-81
2022/02/11 05:36:17;;;;;;;1.73;1.65;;;;;;;8.09;58.67;102575.47;5002209;22;20106;-78
2022/02/11 05:38:43;;;;;;;0.10;0.10;;;;;;;8.11;58.42;102586.03;4976561;28;20101;-78
2022/02/11 05:41:11;;;;;;;0.10;0.10;;;;;;;8.18;57.76;102598.50;4976976;28;20033;-79
2022/02/11 05:43:40;;;;;;;0.10;0.10;;;;;;;8.20;58.04;102591.50;4958946;28;20031;-77
2022/02/11 05:46:08;;;;;;;0.10;0.10;;;;;;;8.16;57.38;102609.91;4956986;29;20086;-78
2022/02/11 05:48:36;;;;;;;0.10;0.10;;;;;;;8.03;57.02;102621.97;4957015;29;20489;-78
2022/02/11 05:51:02;;;;;;;0.10;0.10;;;;;;;8.05;57.25;102629.06;4964179;28;20045;-78
2022/02/11 05:53:28;;;;;;;3.13;1.45;;;;;;;8.05;57.13;102626.44;4976124;28;20035;-78
2022/02/11 05:55:54;;;;;;;0.10;0.10;;;;;;;7.96;56.64;102634.16;4974804;28;20038;-77
2022/02/11 05:58:20;;;;;;;0.10;0.10;;;;;;;7.99;57.06;102643.88;4975553;28;20039;-77
2022/02/11 06:00:47;;;;;;;0.10;0.10;;;;;;;7.98;56.61;102648.28;4970987;28;20053;-77
2022/02/11 06:03:13;;;;;;;1.95;1.85;;;;;;;7.99;56.50;102660.63;4975856;28;20050;-78
2022/02/11 06:05:39;;;;;;;1.17;1.17;;;;;;;7.97;56.88;102657.06;4975845;28;20035;-79
2022/02/11 06:08:05;;;;;;;4.03;1.75;;;;;;;7.94;56.82;102664.94;4975324;28;20565;-80
2022/02/11 06:10:31;;;;;;;0.10;0.10;;;;;;;7.82;56.58;102662.03;4974777;28;20038;-79
2022/02/11 06:12:57;;;;;;;0.10;0.10;;;;;;;7.81;56.39;102662.91;4976117;28;20034;-81
2022/02/11 06:15:23;;;;;;;0.10;0.10;;;;;;;7.85;56.00;102663.00;4976120;28;20117;-78
2022/02/11 06:17:49;;;;;;;0.10;0.10;;;;;;;7.82;56.26;102683.16;4976053;28;20482;-78
2022/02/11 06:20:15;;;;;;;0.10;0.10;;;;;;;7.72;56.84;102672.38;4974608;28;20039;-79
2022/02/11 06:22:44;;;;;;;0.10;0.10;;;;;;;7.73;56.99;102674.16;4976803;28;20027;-78
2022/02/11 06:25:11;;;;;;;0.10;0.10;;;;;;;7.71;56.80;102680.28;4975483;28;20108;-77
2022/02/11 06:27:37;;;;;;;0.10;0.10;;;;;;;7.69;57.21;102680.25;4975658;28;20034;-78
2022/02/11 06:30:04;;;;;;;0.10;0.10;;;;;;;7.70;56.85;102684.69;4975538;28;20393;-77
2022/02/11 06:32:30;;;;;;;0.50;0.50;;;;;;;7.67;56.96;102689.88;4975246;28;20238;-79
2022/02/11 06:34:57;;;;;;;0.43;0.43;;;;;;;7.70;56.68;102689.94;4975618;28;20375;-78
2022/02/11 06:37:23;;;;;;;0.22;0.22;;;;;;;7.78;56.48;102701.53;4975995;28;20038;-77
2022/02/11 06:39:49;;;;;;;0.10;0.10;;;;;;;7.72;57.70;102735.72;4975414;28;20031;-77
2022/02/11 06:42:15;;;;;;;0.10;0.10;;;;;;;7.52;58.90;102729.09;4974808;28;20057;-77
2022/02/11 06:44:41;;;;;;;0.10;0.10;;;;;;;7.18;59.74;102728.28;4974928;28;20117;-77
2022/02/11 06:47:07;;;;;;;0.10;0.10;;;;;;;7.06;60.12;102750.84;4975205;28;20412;-78
2022/02/11 06:49:34;;;;;;;0.10;0.10;;;;;;;6.91;60.80;102755.75;4975234;28;20114;-78
2022/02/11 06:52:00;;;;;;;0.10;0.10;;;;;;;6.88;61.15;102756.56;4974885;28;20039;-76
2022/02/11 06:54:26;;;;;;;8.15;6.25;;;;;;;6.86;61.65;102760.00;4974649;28;20421;-76
2022/02/11 06:56:52;;;;;;;0.30;0.30;;;;;;;6.76;61.39;102778.19;4974334;28;20090;-77
2022/02/11 06:59:18;;;;;;;0.10;0.10;;;;;;;6.84;61.65;102780.16;4974933;28;20034;-76
2022/02/11 07:01:44;;;;;;;0.10;0.10;;;;;;;6.75;62.59;102786.06;4975469;28;20038;-77
2022/02/11 07:06:52;;;;;;;0.10;0.10;;;;;;;6.79;62.64;102825.72;5008027;28;20046;-80
2022/02/11 07:09:18;;;;;;;0.10;0.10;;;;;;;6.78;62.74;102826.56;5013925;28;20038;-80
2022/02/11 07:11:44;;;;;;;0.10;0.10;;;;;;;6.63;64.51;102831.41;5012510;28;20034;-82
2022/02/11 07:14:11;;;;;;;0.20;0.20;;;;;;;6.56;64.02;102832.06;5005868;28;20080;-80
2022/02/11 07:16:38;;;;;;;0.10;0.10;;;;;;;6.53;63.86;102835.53;5003431;28;20030;-80
2022/02/11 07:19:04;;;;;;;0.10;0.10;;;;;;;6.60;64.00;102841.84;5012442;28;20084;-80
2022/02/11 07:21:30;;;;;;;0.10;0.10;;;;;;;6.53;63.58;102845.16;5011819;28;20030;-80
2022/02/11 07:23:56;;;;;;;0.10;0.10;;;;;;;6.50;64.07;102855.59;5011287;28;20057;-81
2022/02/11 07:26:22;;;;;;;0.10;0.10;;;;;;;6.48;63.55;102855.56;5007129;28;20033;-81
2022/02/11 07:28:48;;;;;;;0.10;0.10;;;;;;;6.44;63.48;102858.94;5010429;28;20048;-81
2022/02/11 07:31:14;;;;;;;0.10;0.10;;;;;;;6.32;63.71;102863.00;5005889;28;20026;-81
2022/02/11 07:33:41;;;;;;;0.10;0.10;;;;;;;6.38;63.77;102862.28;5004718;28;20389;-81
2022/02/11 07:36:09;;;;;;;0.10;0.10;;;;;;;6.32;63.73;102872.63;4994555;28;20395;-81
2022/02/11 07:38:35;;;;;;;0.10;0.10;;;;;;;6.33;64.46;102879.69;5012362;28;20092;-81
2022/02/11 07:41:01;;;;;;;0.10;0.10;;;;;;;6.36;64.00;102879.78;5012156;28;20388;-81
2022/02/11 07:43:28;;;;;;;0.10;0.10;;;;;;;6.39;63.93;102893.06;5011660;28;20050;-81
2022/02/11 07:45:54;;;;;;;0.10;0.10;;;;;;;6.44;64.05;102899.34;5011857;28;20126;-81
2022/02/11 07:48:20;;;;;;;0.10;0.10;;;;;;;6.51;64.45;102905.69;5007255;28;20366;-82
2022/02/11 07:50:46;;;;;;;0.10;0.10;;;;;;;6.57;64.66;102918.16;5008809;28;20034;-82
2022/02/11 07:53:15;;;;;;;0.10;0.10;;;;;;;6.67;64.07;102916.66;4990370;28;20041;-81
2022/02/11 07:55:41;;;;;;;0.10;0.10;;;;;;;6.67;64.04;102920.19;5011203;28;20060;-81
2022/02/11 07:58:08;;;;;;;10.60;2.65;;;;;;;6.66;64.09;102926.31;5011411;28;20045;-81
2022/02/11 08:00:34;;;;;;;0.10;0.10;;;;;;;6.84;63.92;102930.34;5008778;28;20041;-82
2022/02/11 08:03:00;;;;;;;0.10;0.10;;;;;;;6.91;64.04;102937.56;5008147;28;20030;-81
2022/02/11 08:05:26;;;;;;;1.33;1.25;;;;;;;7.00;63.96;102940.47;5004867;28;20034;-81
2022/02/11 08:07:52;;;;;;;3.75;1.38;;;;;;;6.95;64.08;102945.63;5003343;28;20026;-81
2022/02/11 08:10:18;;;;;;;0.57;0.57;;;;;;;6.96;63.87;102951.78;5009012;28;20030;-81
2022/02/11 08:12:44;;;;;;;0.10;0.10;;;;;;;6.88;63.81;102955.91;5010592;28;20049;-81
2022/02/11 08:15:11;;;;;;;0.10;0.10;;;;;;;6.90;63.69;102959.50;5010102;28;20480;-81
2022/02/11 08:17:40;;;;;;;0.10;0.10;;;;;;;6.88;63.89;102975.28;5011001;28;20113;-82
2022/02/11 08:20:07;;;;;;;0.10;0.10;;;;;;;6.87;63.60;102969.97;5005679;28;20081;-80
2022/02/11 08:22:33;;;;;;;0.10;0.10;;;;;;;6.86;63.63;102976.09;4990494;28;20034;-81
2022/02/11 08:24:59;;;;;;;0.10;0.10;;;;;;;6.82;63.66;102990.91;5010163;28;20045;-81
2022/02/11 08:27:25;;;;;;;0.00;0.00;;;;;;;6.88;63.92;102992.81;5010149;28;20048;-82
2022/02/11 08:29:51;;;;;;;0.10;0.10;;;;;;;6.91;64.13;102996.44;5010643;28;20037;-81
2022/02/11 08:32:19;;;;;;;0.10;0.10;;;;;;;6.89;63.79;102997.25;5007851;28;20034;-82
2022/02/11 08:34:46;;;;;;;0.10;0.10;;;;;;;6.84;63.61;103010.31;5010517;28;20042;-81
2022/02/11 08:37:12;;;;;;;0.32;0.32;;;;;;;6.88;63.27;103006.00;5008398;28;20053;-82
2022/02/11 08:39:38;;;;;;;0.10;0.10;;;;;;;6.85;63.63;103009.44;5005927;28;20041;-82
2022/02/11 08:42:06;;;;;;;0.10;0.10;;;;;;;6.93;62.96;103013.19;5009960;28;20034;-81
2022/02/11 08:44:33;;;;;;;0.13;0.13;;;;;;;6.95;61.52;103014.16;5011226;28;20026;-82
2022/02/11 08:46:59;;;;;;;0.10;0.10;;;;;;;6.95;60.02;103026.41;5014883;28;20057;-82
2022/02/11 08:49:26;;;;;;;0.10;0.10;;;;;;;6.96;59.32;103036.13;5008152;28;20110;-82
2022/02/11 08:51:52;;;;;;;0.10;0.10;;;;;;;7.03;57.82;103042.44;5005364;28;20036;-82
2022/02/11 08:54:18;;;;;;;0.55;0.55;;;;;;;7.10;56.93;103050.63;5014910;28;20099;-82
2022/02/11 08:56:44;;;;;;;0.10;0.10;;;;;;;7.03;54.89;103053.91;5014956;28;20034;-82
2022/02/11 08:59:10;;;;;;;0.10;0.10;;;;;;;7.10;54.43;103066.44;5015024;28;20197;-81
2022/02/11 09:01:36;;;;;;;0.10;0.10;;;;;;;7.25;54.99;103059.81;5014792;28;20026;-81
2022/02/11 09:04:03;;;;;;;0.10;0.10;;;;;;;7.34;55.09;103060.09;5014906;28;20460;-83
2022/02/11 09:06:29;;;;;;;0.10;0.10;;;;;;;7.32;53.65;103067.06;5014650;28;20084;-82
2022/02/11 09:08:55;;;;;;;0.10;0.10;;;;;;;7.41;53.84;103066.44;5013558;28;20392;-83
2022/02/11 09:11:21;;;;;;;0.10;0.10;;;;;;;7.51;54.33;103067.59;5001539;28;20204;-82
2022/02/11 09:13:49;;;;;;;0.10;0.10;;;;;;;7.41;53.45;103088.44;5013618;28;20132;-82
2022/02/11 09:16:16;;;;;;;0.10;0.10;;;;;;;7.64;54.24;103079.38;5001085;28;20034;-82
2022/02/11 09:18:42;;;;;;;0.10;0.10;;;;;;;7.59;53.42;103081.91;5005557;28;20045;-82
2022/02/11 09:21:09;;;;;;;0.10;0.10;;;;;;;7.67;53.49;103088.28;5002602;28;20038;-82
2022/02/11 09:23:35;;;;;;;0.10;0.10;;;;;;;7.80;53.82;103091.25;5012620;28;20034;-83
2022/02/11 09:26:06;;;;;;;0.00;0.00;;;;;;;7.90;53.57;103090.66;5013736;28;20037;-83
2022/02/11 09:28:33;;;;;;;1.20;1.20;;;;;;;7.86;51.85;103102.91;5014825;28;20108;-83
2022/02/11 09:30:59;;;;;;;0.20;0.20;;;;;;;7.86;52.44;103104.63;5006994;28;20092;-83
2022/02/11 09:33:25;;;;;;;0.10;0.10;;;;;;;8.14;51.73;103111.56;4995061;28;20038;-83
2022/02/11 09:35:51;;;;;;;0.20;0.20;;;;;;;8.33;52.69;103115.56;4994720;28;20035;-83
2022/02/11 09:38:19;;;;;;;0.10;0.10;;;;;;;8.49;52.37;103121.28;4994787;28;20038;-84
2022/02/11 09:40:50;;;;;;;0.10;0.10;;;;;;;8.55;51.97;103118.81;5013282;28;20046;-83
2022/02/11 09:43:18;;;;;;;0.10;0.10;;;;;;;8.55;50.77;103134.66;5013738;28;20049;-83
2022/02/11 09:45:45;;;;;;;0.10;0.10;;;;;;;8.49;50.18;103142.44;5013835;28;20026;-83
2022/02/11 09:48:11;;;;;;;0.10;0.10;;;;;;;8.52;51.31;103145.13;5014187;28;20026;-83
2022/02/11 09:50:38;;;;;;;0.22;0.22;;;;;;;8.34;49.84;103145.53;5013766;28;20026;-83
2022/02/11 09:53:04;;;;;;;0.10;0.10;;;;;;;8.21;47.90;103150.50;5013738;28;20057;-81
2022/02/11 09:55:33;;;;;;;0.00;0.00;;;;;;;8.23;48.86;103147.88;5013427;28;20523;-81
2022/02/11 09:58:03;;;;;;;0.10;0.10;;;;;;;8.25;49.32;103154.09;5013359;28;20029;-82
2022/02/11 10:00:34;;;;;;;0.10;0.10;;;;;;;8.31;48.22;103146.34;5010114;28;20508;-82
2022/02/11 10:03:05;;;;;;;0.10;0.10;;;;;;;8.45;47.83;103149.34;5011034;28;20087;-82
2022/02/11 10:05:34;;;;;;;0.10;0.10;;;;;;;8.55;49.05;103153.16;5019414;23;20375;-78
2022/02/11 10:08:02;;;;;;;0.10;0.10;;;;;;;8.51;47.38;103152.19;4968720;28;20395;-78
2022/02/11 10:11:01;;;;;;;0.38;0.38;;;;;;;8.57;47.15;103167.28;4975098;28;20030;-78
2022/02/11 10:13:23;;;;;;;0.10;0.10;;;;;;;8.59;44.93;103178.78;4974491;28;20482;-78
2022/02/11 10:15:54;;;;;;;1.75;1.65;;;;;;;8.78;46.10;103189.84;4974510;28;20027;-78
2022/02/11 10:18:26;;;;;;;0.10;0.10;;;;;;;8.74;45.78;103187.09;4974267;28;20474;-78
2022/02/11 10:20:57;;;;;;;0.20;0.20;;;;;;;8.96;45.85;103195.59;4974562;28;20089;-78
2022/02/11 10:23:27;;;;;;;0.20;0.20;;;;;;;9.01;45.65;103196.59;4974382;28;20057;-78
2022/02/11 10:28:44;;;;;;;0.10;0.10;;;;;;;9.26;46.38;103198.91;5089372;27;20414;-78
2022/02/11 10:31:35;;;;;;;0.10;0.10;;;;;;;9.44;46.72;103207.28;5052879;28;20026;-77
2022/02/11 10:34:05;;;;;;;0.10;0.10;;;;;;;9.40;47.53;103210.72;5049000;28;20037;-77
2022/02/11 10:39:25;;;;;;;0.10;0.10;;;;;;;9.23;48.53;103226.19;5088815;27;20398;-78
2022/02/11 10:41:57;;;;;;;0.10;0.10;;;;;;;9.24;48.84;103225.34;5089396;28;20101;-77
2022/02/11 10:44:26;;;;;;;;;;;;;;;9.40;48.89;103231.91;5089343;28;20025;-77
2022/02/11 10:46:57;;;;;;;0.10;0.10;;;;;;;9.38;48.11;103234.50;5073337;28;19924;-78
2022/02/11 10:49:44;;;;;;;0.10;0.10;;;;;;;9.58;46.85;103241.13;5081199;28;20047;-77
2022/02/11 10:54:54;;;;;;;0.22;0.22;;;;;;;9.42;46.22;103245.16;5040826;27;1239764;-78
2022/02/11 10:57:24;;;;;;;0.10;0.10;;;;;;;9.38;46.95;103254.75;5069286;28;20041;-77
2022/02/11 10:59:50;;;;;;;0.65;0.65;;;;;;;9.25;45.42;103260.66;5068839;28;20416;-77
2022/02/11 11:02:19;;;;;;;1.15;1.05;;;;;;;9.28;45.17;103269.53;5065335;28;20033;-77
2022/02/11 11:04:47;;;;;;;0.10;0.10;;;;;;;9.28;45.26;103264.22;5067863;28;20116;-78
2022/02/11 11:07:23;;;;;;;0.08;0.08;;;;;;;9.15;43.80;103273.63;5067516;28;20446;-77
2022/02/11 11:09:51;;;;;;;0.10;0.10;;;;;;;9.14;43.31;103273.59;5067238;28;20028;-76
2022/02/11 11:12:22;;;;;;;0.10;0.10;;;;;;;9.17;43.72;103269.28;5067377;28;20032;-77
2022/02/11 11:14:51;;;;;;;0.10;0.10;;;;;;;9.30;43.24;103278.41;5066419;28;20368;-77
2022/02/11 11:17:20;;;;;;;0.10;0.10;;;;;;;9.21;40.92;103281.72;5068362;28;20507;-77
2022/02/11 11:19:48;;;;;;;0.10;0.10;;;;;;;9.33;40.92;103282.88;5069848;28;20028;-76
2022/02/11 11:22:24;;;;;;;0.30;0.30;;;;;;;9.49;41.04;103282.38;5067014;28;20391;-77
2022/02/11 11:24:56;;;;;;;0.10;0.10;;;;;;;9.62;41.69;103296.81;5066401;28;20021;-77
2022/02/11 11:38:44;;;;;;;0.10;0.10;;;;;;;9.94;40.88;103291.34;5058400;28;20392;-76
2022/02/11 11:43:57;;;;;;;0.10;0.10;;;;;;;10.17;40.54;103291.84;5074393;27;20913;-76
2022/02/11 11:54:26;;;;;;;0.10;0.10;;;;;;;10.50;40.11;103284.56;5105621;27;20906;-76
2022/02/11 11:59:41;;;;;;;0.55;0.55;;;;;;;10.52;37.99;103294.34;5103118;27;20392;-76
2022/02/11 12:02:10;;;;;;;0.10;0.10;;;;;;;10.53;38.09;103295.25;5096961;28;20036;-76
2022/02/11 12:07:22;;;;;;;0.10;0.10;;;;;;;10.69;37.80;103296.41;5129249;27;20408;-77
2022/02/11 12:09:52;;;;;;;0.05;0.05;;;;;;;10.76;38.55;103308.94;5129029;27;20049;-77
2022/02/11 12:12:21;;;;;;;0.10;0.10;;;;;;;10.72;38.54;103300.91;5123306;27;20035;-76
2022/02/11 12:14:49;;;;;;;0.10;0.10;;;;;;;10.75;37.63;103300.94;5126009;27;20028;-76
2022/02/11 12:17:18;;;;;;;0.10;0.10;;;;;;;10.72;37.36;103296.50;5127979;27;20036;-77
2022/02/11 12:19:46;;;;;;;0.10;0.10;;;;;;;10.89;38.88;103304.78;5129246;28;20511;-77
2022/02/11 12:22:14;;;;;;;0.10;0.10;;;;;;;10.88;38.88;103310.94;5122595;28;20035;-77
2022/02/11 12:27:34;;;;;;;0.10;0.10;;;;;;;10.96;38.19;103311.06;5129630;28;20043;-77
2022/02/11 12:32:47;;;;;;;0.10;0.10;;;;;;;11.30;38.51;103307.25;5089654;28;20464;-78
2022/02/11 12:35:17;;;;;;;0.45;0.45;;;;;;;11.56;38.17;103308.53;5061451;28;20025;-76
2022/02/11 12:37:47;;;;;;;0.10;0.10;;;;;;;11.70;36.36;103300.75;5037843;28;20419;-76
2022/02/11 12:43:03;;;;;;;0.10;0.10;;;;;;;11.56;38.60;103314.72;5069380;28;20454;-77
2022/02/11 12:45:32;;;;;;;0.10;0.10;;;;;;;11.36;38.38;103305.56;5069125;28;20493;-77
2022/02/11 12:48:01;;;;;;;0.20;0.20;;;;;;;11.20;39.04;103309.72;5069348;28;20095;-77
2022/02/11 12:50:37;;;;;;;0.10;0.10;;;;;;;11.25;39.64;103310.66;5055281;28;20036;-75
2022/02/11 12:53:07;;;;;;;0.10;0.10;;;;;;;11.06;40.24;103313.00;5068035;28;20051;-77
2022/02/11 12:55:36;;;;;;;0.10;0.10;;;;;;;10.95;41.15;103312.84;5068793;28;20122;-77
2022/02/11 12:58:04;;;;;;;0.00;0.00;;;;;;;10.76;41.57;103314.22;5069219;28;20024;-77
2022/02/11 13:00:33;;;;;;;0.10;0.10;;;;;;;10.71;42.32;103320.34;5068850;28;20021;-77
2022/02/11 13:03:01;;;;;;;0.10;0.10;;;;;;;10.61;42.69;103332.50;5069248;28;20028;-77
2022/02/11 13:05:29;;;;;;;0.10;0.10;;;;;;;10.48;42.98;103328.69;5061565;23;20052;-80
2022/02/11 13:07:57;;;;;;;0.10;0.10;;;;;;;10.31;43.57;103330.97;5028205;28;20033;-81
2022/02/11 13:13:18;;;;;;;0.05;0.05;;;;;;;10.23;43.95;103328.19;5089265;28;20483;-80
2022/02/11 13:15:46;;;;;;;0.10;0.10;;;;;;;9.97;43.97;103336.44;5058645;28;20029;-80
2022/02/11 13:18:22;;;;;;;0.10;0.10;;;;;;;10.03;44.27;103340.97;5049267;28;20079;-81
2022/02/11 13:20:51;;;;;;;0.10;0.10;;;;;;;9.93;44.73;103345.19;5048739;28;20380;-80
2022/02/11 13:23:20;;;;;;;0.05;0.05;;;;;;;9.95;44.32;103358.44;5048900;28;20029;-81
2022/02/11 13:25:47;;;;;;;0.10;0.10;;;;;;;9.92;44.36;103350.41;5048970;28;20049;-81
2022/02/11 13:28:18;;;;;;;0.10;0.10;;;;;;;9.88;44.22;103341.50;5047773;28;20121;-80
2022/02/11 13:30:46;;;;;;;0.10;0.10;;;;;;;9.94;44.80;103339.00;5048647;28;20468;-81
2022/02/11 13:36:26;;;;;;;0.10;0.10;;;;;;;10.19;45.79;103352.78;5110364;27;20404;-82
2022/02/11 13:38:52;;;;;;;0.10;0.10;;;;;;;10.27;45.68;103348.56;5105773;28;20035;-81
2022/02/11 13:41:28;;;;;;;0.55;0.55;;;;;;;10.28;46.94;103346.81;5084474;28;20503;-82
2022/02/11 13:46:36;;;;;;;0.10;0.10;;;;;;;10.13;45.99;103358.88;5069111;28;20485;-81
2022/02/11 13:49:05;;;;;;;0.10;0.10;;;;;;;10.15;45.88;103358.91;5049073;28;20045;-80
2022/02/11 13:51:32;;;;;;;0.22;0.22;;;;;;;10.27;46.10;103350.31;5034326;28;20037;-81
2022/02/11 13:54:11;;;;;;;0.10;0.10;;;;;;;10.45;45.59;103356.03;5048520;28;20025;-81
2022/02/11 13:56:41;;;;;;;0.00;0.00;;;;;;;10.38;45.47;103369.13;5049938;28;20033;-79
2022/02/11 14:01:52;;;;;;;0.10;0.10;;;;;;;10.40;44.68;103362.13;5090804;27;20501;-81
2022/02/11 14:04:21;;;;;;;0.00;0.00;;;;;;;10.51;43.49;103365.88;5070625;28;20037;-80
2022/02/11 14:06:51;;;;;;;0.10;0.10;;;;;;;10.61;43.49;103357.25;5049985;28;20029;-80
2022/02/11 14:09:37;;;;;;;0.10;0.10;;;;;;;10.78;42.57;103348.72;5030728;28;20037;-82
2022/02/11 14:12:23;;;;;;;0.10;0.10;;;;;;;10.90;42.65;103361.34;5046338;28;20040;-81
2022/02/11 14:17:39;;;;;;;0.03;0.03;;;;;;;10.92;40.77;103368.47;5076865;28;20457;-80
2022/02/11 14:20:06;;;;;;;0.10;0.10;;;;;;;10.97;41.23;103366.78;5069999;28;20038;-80
2022/02/11 14:22:33;;;;;;;1.95;1.77;;;;;;;10.94;40.67;103374.72;5070126;28;20037;-80
2022/02/11 14:24:59;;;;;;;0.10;0.10;;;;;;;10.91;41.03;103382.59;5070345;28;20376;-80
2022/02/11 14:27:25;;;;;;;0.10;0.10;;;;;;;10.76;40.64;103391.13;5070063;28;20033;-80
2022/02/11 14:29:51;;;;;;;0.10;0.10;;;;;;;10.69;40.14;103391.88;5070584;28;20405;-81
2022/02/11 14:32:17;;;;;;;0.10;0.10;;;;;;;10.65;39.03;103401.53;5070195;28;20021;-80
2022/02/11 14:34:43;;;;;;;0.10;0.10;;;;;;;10.63;39.36;103390.00;5070594;28;20501;-80
2022/02/11 14:37:10;;;;;;;0.00;0.00;;;;;;;10.77;40.09;103384.97;5053314;28;20056;-81
2022/02/11 14:39:37;;;;;;;0.10;0.10;;;;;;;10.83;39.32;103390.41;5050300;28;20066;-82
2022/02/11 14:42:05;;;;;;;0.13;0.13;;;;;;;10.83;38.91;103389.53;5050305;28;20117;-81
2022/02/11 14:44:34;;;;;;;0.00;0.00;;;;;;;10.77;38.54;103395.59;5050454;28;20029;-81
2022/02/11 14:47:02;;;;;;;0.10;0.10;;;;;;;10.79;39.39;103390.31;5050141;28;20026;-81
2022/02/11 14:49:29;;;;;;;0.10;0.10;;;;;;;10.89;39.64;103396.69;5050381;28;20029;-81
2022/02/11 14:51:59;;;;;;;0.10;0.10;;;;;;;10.99;40.32;103401.28;5050129;28;20036;-81
2022/02/11 14:54:26;;;;;;;0.10;0.10;;;;;;;11.02;40.19;103382.81;5050067;28;20106;-81
2022/02/11 14:56:55;;;;;;;0.10;0.10;;;;;;;11.09;40.11;103386.44;5049656;28;20037;-81
2022/02/11 14:59:22;;;;;;;0.10;0.10;;;;;;;11.00;40.86;103387.19;5049948;28;20029;-81
2022/02/11 15:01:49;;;;;;;0.10;0.10;;;;;;;10.94;41.46;103395.00;5049977;28;20078;-81
2022/02/11 15:04:16;;;;;;;0.10;0.10;;;;;;;10.88;42.21;103398.47;5052440;28;20052;-81
2022/02/11 15:06:46;;;;;;;0.10;0.10;;;;;;;10.79;42.17;103409.78;5063052;28;20392;-81
2022/02/11 15:09:13;;;;;;;0.10;0.10;;;;;;;10.70;42.59;103412.22;5049490;28;20424;-82
2022/02/11 15:11:41;;;;;;;0.10;0.10;;;;;;;10.57;42.62;103408.44;5049615;28;20047;-81
2022/02/11 15:14:07;;;;;;;1.85;1.75;;;;;;;10.31;42.62;103411.38;5049534;28;20021;-81
2022/02/11 15:16:33;;;;;;;0.10;0.10;;;;;;;10.14;43.59;103418.03;5049467;28;20124;-80
2022/02/11 15:19:00;;;;;;;0.10;0.10;;;;;;;10.02;44.10;103416.91;5049557;28;20040;-81
2022/02/11 15:21:26;;;;;;;0.10;0.10;;;;;;;9.85;44.19;103418.25;5065621;28;20029;-81
2022/02/11 15:23:52;;;;;;;0.10;0.10;;;;;;;9.78;44.14;103414.56;5049248;28;20033;-80
2022/02/11 15:26:20;;;;;;;1.77;0.68;;;;;;;9.68;44.62;103421.38;5049339;28;20029;-81
2022/02/11 15:28:46;;;;;;;0.10;0.10;;;;;;;9.65;44.82;103418.63;5036448;28;20495;-82
2022/02/11 15:31:13;;;;;;;0.10;0.10;;;;;;;9.61;45.46;103416.78;5036017;28;20553;-81
2022/02/11 15:33:41;;;;;;;0.10;0.10;;;;;;;9.60;44.92;103417.63;5036753;28;20464;-82
2022/02/11 15:36:08;;;;;;;0.10;0.10;;;;;;;9.62;45.70;103423.88;5055343;28;20518;-82
2022/02/11 15:38:35;;;;;;;0.10;0.10;;;;;;;9.63;45.91;103430.97;5055829;28;20092;-82
2022/02/11 15:41:01;;;;;;;0.10;0.10;;;;;;;9.60;45.17;103422.91;5055781;28;20029;-82
2022/02/11 15:43:29;;;;;;;0.10;0.10;;;;;;;9.61;45.48;103430.00;5055773;28;20086;-82
2022/02/11 15:45:55;;;;;;;0.00;0.00;;;;;;;9.55;45.70;103428.09;5055489;28;20036;-81